Time;durP1;ratioP1;P1;durP2;ratioP2;P2;SDS_P1;SDS_P2;PMS_P1;PMS_P2;Temp;Humidity;BMP_temperature;BMP_pressure;BME280_temperature;BME280_humidity;BME280_pressure;Samples;Min_cycle;Max_cycle;Signal;HPM_P1;HPM_P2
2021/09/03 00:02:16;;;;;;;13.95;6.75;;;13.60;99.90;;;;;;4988958;28;20218;-73
2021/09/03 00:04:42;;;;;;;20.95;8.02;;;13.60;99.90;;;;;;4987807;28;20033;-73
2021/09/03 00:07:17;;;;;;;12.43;7.20;;;13.60;99.90;;;;;;4984907;28;20165;-73
2021/09/03 00:09:42;;;;;;;12.88;6.82;;;13.60;99.90;;;;;;4988471;28;20030;-73
2021/09/03 00:12:08;;;;;;;15.18;6.63;;;13.50;99.90;;;;;;4988688;28;20026;-73
2021/09/03 00:14:34;;;;;;;11.90;6.95;;;13.50;99.90;;;;;;4989568;28;20489;-73
2021/09/03 00:17:01;;;;;;;11.55;7.05;;;13.50;99.90;;;;;;4987034;28;20034;-73
2021/09/03 00:19:27;;;;;;;12.65;6.85;;;13.50;99.90;;;;;;4989156;28;20026;-73
2021/09/03 00:21:52;;;;;;;16.83;6.88;;;13.40;99.90;;;;;;4988274;28;20042;-73
2021/09/03 00:24:19;;;;;;;13.02;6.85;;;13.40;99.90;;;;;;4989439;28;20109;-73
2021/09/03 00:26:45;;;;;;;14.82;7.15;;;13.40;99.90;;;;;;4989244;28;20444;-73
2021/09/03 00:29:10;;;;;;;11.40;6.78;;;13.40;99.90;;;;;;4986576;28;20054;-73
2021/09/03 00:31:36;;;;;;;14.23;6.65;;;13.40;99.90;;;;;;4982834;28;20022;-73
2021/09/03 00:34:01;;;;;;;12.15;7.03;;;13.40;99.90;;;;;;4987505;28;20034;-73
2021/09/03 00:36:27;;;;;;;12.50;6.93;;;13.40;99.90;;;;;;4988393;28;20018;-73
2021/09/03 00:38:52;;;;;;;13.68;6.80;;;13.30;99.90;;;;;;4987996;28;20506;-73
2021/09/03 00:41:17;;;;;;;12.93;7.28;;;13.30;99.90;;;;;;4980681;28;20022;-73
2021/09/03 00:43:45;;;;;;;14.82;6.55;;;13.30;99.90;;;;;;4984692;28;20709;-74
2021/09/03 00:46:11;;;;;;;12.70;7.05;;;13.30;99.90;;;;;;4989123;28;20030;-73
2021/09/03 00:48:36;;;;;;;12.70;6.35;;;13.30;99.90;;;;;;4987192;28;20037;-73
2021/09/03 00:51:02;;;;;;;12.88;7.13;;;13.30;99.90;;;;;;4985577;28;20049;-73
2021/09/03 00:53:28;;;;;;;12.70;6.72;;;13.30;99.90;;;;;;4987759;28;20030;-72
2021/09/03 00:55:54;;;;;;;12.73;6.45;;;13.20;99.90;;;;;;4988629;28;20109;-73
2021/09/03 00:58:21;;;;;;;10.55;6.85;;;13.30;99.90;;;;;;4985042;28;20105;-73
2021/09/03 01:00:49;;;;;;;13.45;6.70;;;13.30;99.90;;;;;;4985027;28;20070;-73
2021/09/03 01:03:15;;;;;;;12.45;7.18;;;13.30;99.90;;;;;;4981496;28;20053;-73
2021/09/03 01:05:40;;;;;;;15.00;7.47;;;13.30;99.90;;;;;;4986540;28;20101;-73
2021/09/03 01:08:06;;;;;;;17.75;6.72;;;13.20;99.90;;;;;;4985871;28;20114;-74
2021/09/03 01:10:33;;;;;;;12.93;6.60;;;13.20;99.90;;;;;;4978155;28;20030;-73
2021/09/03 01:12:59;;;;;;;12.52;6.53;;;13.20;99.90;;;;;;4983125;28;20034;-73
2021/09/03 01:15:25;;;;;;;13.80;6.75;;;13.20;99.90;;;;;;4988866;28;20114;-73
2021/09/03 01:17:50;;;;;;;12.52;6.72;;;13.20;99.90;;;;;;4986322;28;20050;-73
2021/09/03 01:20:16;;;;;;;11.10;6.25;;;13.20;99.90;;;;;;4983422;28;20038;-73
2021/09/03 01:22:42;;;;;;;13.90;6.80;;;13.20;99.90;;;;;;4989255;28;20030;-73
2021/09/03 01:25:08;;;;;;;10.82;6.30;;;13.20;99.90;;;;;;4987468;28;20447;-73
2021/09/03 01:27:34;;;;;;;12.98;6.13;;;13.20;99.90;;;;;;4978621;28;20088;-73
2021/09/03 01:30:00;;;;;;;13.88;6.82;;;13.10;99.90;;;;;;4987740;28;20366;-73
2021/09/03 01:32:28;;;;;;;11.00;6.22;;;13.10;99.90;;;;;;4990526;28;20522;-73
2021/09/03 01:34:54;;;;;;;13.73;6.68;;;13.10;99.90;;;;;;4990795;28;20110;-73
2021/09/03 01:37:19;;;;;;;11.48;6.40;;;13.10;99.90;;;;;;4988068;28;20118;-74
2021/09/03 01:39:45;;;;;;;12.73;6.60;;;13.10;99.90;;;;;;4983259;28;20027;-73
2021/09/03 01:42:11;;;;;;;10.57;5.95;;;13.10;99.90;;;;;;4983898;28;20443;-74
2021/09/03 01:44:36;;;;;;;15.13;6.53;;;13.10;99.90;;;;;;4991541;28;20519;-74
2021/09/03 01:47:02;;;;;;;9.60;6.00;;;13.10;99.90;;;;;;4987593;28;20727;-74
2021/09/03 01:49:27;;;;;;;10.48;6.50;;;13.10;99.90;;;;;;4980976;28;20018;-73
2021/09/03 01:51:53;;;;;;;13.60;6.25;;;13.10;99.90;;;;;;4981751;28;20026;-73
2021/09/03 01:54:18;;;;;;;13.18;6.20;;;13.10;99.90;;;;;;4984128;28;20039;-73
2021/09/03 01:56:44;;;;;;;12.38;6.28;;;13.10;99.90;;;;;;4987285;28;20489;-73
2021/09/03 01:59:09;;;;;;;13.65;6.53;;;13.10;99.90;;;;;;4990758;28;20046;-73
2021/09/03 02:01:35;;;;;;;10.48;6.03;;;13.10;99.90;;;;;;4988124;28;20031;-73
2021/09/03 02:04:00;;;;;;;12.57;6.53;;;13.10;99.90;;;;;;4991724;28;20477;-74
2021/09/03 02:06:26;;;;;;;13.40;7.22;;;13.00;99.90;;;;;;4980042;28;20080;-73
2021/09/03 02:08:51;;;;;;;12.00;6.93;;;13.00;99.90;;;;;;4988679;28;20065;-73
2021/09/03 02:11:17;;;;;;;17.27;7.32;;;13.00;99.90;;;;;;4989272;28;20359;-73
2021/09/03 02:13:42;;;;;;;13.70;6.75;;;13.00;99.90;;;;;;4986346;28;20048;-73
2021/09/03 02:16:08;;;;;;;12.65;6.93;;;13.00;99.90;;;;;;4989486;28;20026;-74
2021/09/03 02:18:40;;;;;;;14.13;6.05;;;13.00;99.90;;;;;;4988070;28;20393;-74
2021/09/03 02:21:05;;;;;;;13.27;6.68;;;13.00;99.90;;;;;;4990380;28;20504;-74
2021/09/03 02:23:31;;;;;;;14.43;7.25;;;13.10;99.90;;;;;;4991980;28;20022;-74
2021/09/03 02:25:57;;;;;;;12.60;7.20;;;13.10;99.90;;;;;;4990421;28;20053;-74
2021/09/03 02:28:23;;;;;;;17.25;7.43;;;13.00;99.90;;;;;;4990309;28;20038;-74
2021/09/03 02:30:49;;;;;;;12.73;6.78;;;13.10;99.90;;;;;;4989253;28;20022;-74
2021/09/03 02:33:14;;;;;;;15.23;8.32;;;13.00;99.90;;;;;;4989062;28;20516;-74
2021/09/03 02:35:41;;;;;;;19.02;8.60;;;13.10;99.90;;;;;;4985775;28;20018;-74
2021/09/03 02:38:09;;;;;;;14.98;8.27;;;13.20;99.90;;;;;;4985028;28;20393;-74
2021/09/03 02:40:35;;;;;;;13.80;7.40;;;13.30;99.90;;;;;;4979703;28;20030;-74
2021/09/03 02:43:01;;;;;;;16.95;8.10;;;13.30;99.90;;;;;;4984209;28;20038;-74
2021/09/03 02:45:27;;;;;;;18.85;9.00;;;13.30;99.90;;;;;;4989604;28;20117;-74
2021/09/03 02:47:52;;;;;;;19.35;8.15;;;13.40;99.90;;;;;;4983756;28;20585;-74
2021/09/03 02:50:18;;;;;;;14.90;7.78;;;13.40;99.90;;;;;;4988826;28;20034;-74
2021/09/03 02:52:43;;;;;;;18.15;8.52;;;13.40;99.90;;;;;;4990566;28;20046;-74
2021/09/03 02:55:09;;;;;;;18.23;8.35;;;13.40;99.90;;;;;;4989506;28;20022;-74
2021/09/03 02:57:35;;;;;;;16.48;8.02;;;13.40;99.90;;;;;;4985682;28;20088;-74
2021/09/03 03:00:00;;;;;;;16.83;8.23;;;13.40;99.90;;;;;;4987307;28;20046;-74
2021/09/03 03:02:26;;;;;;;17.10;9.10;;;13.40;99.90;;;;;;4989139;28;20033;-74
2021/09/03 03:04:51;;;;;;;14.80;8.02;;;13.40;99.90;;;;;;4988220;28;20500;-74
2021/09/03 03:07:17;;;;;;;15.63;7.75;;;13.40;99.90;;;;;;4983704;28;20064;-74
2021/09/03 03:09:42;;;;;;;18.17;8.45;;;13.30;99.90;;;;;;4988544;28;20022;-74
2021/09/03 03:12:10;;;;;;;20.10;8.93;;;13.30;99.90;;;;;;4990423;28;20030;-74
2021/09/03 03:14:36;;;;;;;16.95;8.52;;;13.40;99.90;;;;;;4990208;28;20062;-74
2021/09/03 03:17:02;;;;;;;15.45;8.45;;;13.40;99.90;;;;;;4987786;28;20173;-74
2021/09/03 03:19:28;;;;;;;18.08;8.55;;;13.40;99.90;;;;;;4983946;28;20039;-74
2021/09/03 03:21:54;;;;;;;19.48;8.52;;;13.40;99.90;;;;;;4987355;28;20484;-74
2021/09/03 03:24:20;;;;;;;17.60;8.98;;;13.40;99.90;;;;;;4986867;28;20023;-73
2021/09/03 03:26:46;;;;;;;19.35;8.00;;;13.40;99.90;;;;;;4990028;28;20023;-74
2021/09/03 03:29:12;;;;;;;17.58;7.90;;;13.40;99.90;;;;;;4989332;28;20039;-74
2021/09/03 03:31:38;;;;;;;13.23;7.18;;;13.40;99.90;;;;;;4981068;28;20031;-74
2021/09/03 03:34:04;;;;;;;13.35;6.95;;;13.30;99.90;;;;;;4988534;28;20065;-74
2021/09/03 03:36:29;;;;;;;15.20;7.55;;;13.20;99.90;;;;;;4990530;28;20038;-75
2021/09/03 03:38:55;;;;;;;15.13;7.47;;;13.20;99.90;;;;;;4986382;28;20397;-75
2021/09/03 03:41:20;;;;;;;14.65;7.53;;;13.10;99.90;;;;;;4986418;28;20492;-74
2021/09/03 03:43:46;;;;;;;17.10;7.53;;;13.10;99.90;;;;;;4984104;28;20054;-74
2021/09/03 03:46:11;;;;;;;18.20;8.10;;;13.10;99.90;;;;;;4986212;28;20019;-74
2021/09/03 03:48:37;;;;;;;14.75;7.97;;;13.00;99.90;;;;;;4989795;28;20488;-74
2021/09/03 03:51:02;;;;;;;16.25;7.65;;;13.00;99.90;;;;;;4987779;28;20084;-74
2021/09/03 03:53:28;;;;;;;15.40;7.85;;;13.00;99.90;;;;;;4987107;28;20294;-74
2021/09/03 03:55:53;;;;;;;14.63;7.80;;;13.00;99.90;;;;;;4982145;28;20113;-74
2021/09/03 03:58:19;;;;;;;20.23;7.90;;;13.00;99.90;;;;;;4986644;28;20242;-74
2021/09/03 04:00:44;;;;;;;15.27;8.13;;;13.00;99.90;;;;;;4989212;28;20041;-73
2021/09/03 04:03:10;;;;;;;18.30;8.23;;;13.00;99.90;;;;;;4988195;28;20034;-73
2021/09/03 04:05:36;;;;;;;14.73;7.57;;;13.00;99.90;;;;;;4988784;28;20113;-73
2021/09/03 04:08:02;;;;;;;18.73;7.93;;;13.10;99.90;;;;;;4987074;28;20039;-73
2021/09/03 04:10:28;;;;;;;19.25;9.30;;;13.10;99.90;;;;;;4985557;28;20117;-73
2021/09/03 04:12:53;;;;;;;15.43;7.85;;;13.10;99.90;;;;;;4984662;28;20030;-74
2021/09/03 04:15:19;;;;;;;20.77;8.07;;;13.20;99.90;;;;;;4986278;28;20026;-73
2021/09/03 04:17:44;;;;;;;19.95;8.70;;;13.20;99.90;;;;;;4989372;28;20505;-72
2021/09/03 04:20:10;;;;;;;18.27;8.07;;;13.20;99.90;;;;;;4981634;28;20054;-74
2021/09/03 04:22:36;;;;;;;13.88;7.53;;;13.20;99.90;;;;;;4987880;28;20061;-74
2021/09/03 04:25:02;;;;;;;15.20;7.60;;;13.30;99.90;;;;;;4987843;28;20050;-73
2021/09/03 04:27:27;;;;;;;18.83;9.35;;;13.20;99.90;;;;;;4987994;28;20453;-73
2021/09/03 04:29:53;;;;;;;15.02;8.05;;;13.20;99.90;;;;;;4982638;28;20094;-74
2021/09/03 04:32:18;;;;;;;16.85;8.20;;;13.30;99.90;;;;;;4989137;28;20022;-73
2021/09/03 04:34:43;;;;;;;19.88;8.90;;;13.30;99.90;;;;;;4988288;28;20057;-73
2021/09/03 04:37:09;;;;;;;18.95;8.63;;;13.30;99.90;;;;;;4984427;28;20062;-73
2021/09/03 04:39:34;;;;;;;18.02;8.25;;;13.30;99.90;;;;;;4982951;28;20035;-74
2021/09/03 04:42:00;;;;;;;21.92;9.05;;;13.30;99.90;;;;;;4984719;28;20031;-73
2021/09/03 04:44:26;;;;;;;18.13;9.30;;;13.30;99.90;;;;;;4988085;28;20030;-73
2021/09/03 04:46:51;;;;;;;16.08;8.68;;;13.30;99.90;;;;;;4984767;28;20041;-74
2021/09/03 04:49:17;;;;;;;20.60;8.85;;;13.30;99.90;;;;;;4985771;28;20014;-74
2021/09/03 04:51:42;;;;;;;16.42;9.43;;;13.30;99.90;;;;;;4982151;28;20505;-73
2021/09/03 04:54:08;;;;;;;17.17;9.10;;;13.30;99.90;;;;;;4979971;28;20422;-74
2021/09/03 04:56:34;;;;;;;18.58;8.82;;;13.30;99.90;;;;;;4988265;28;20533;-75
2021/09/03 04:58:59;;;;;;;23.48;9.15;;;13.30;99.90;;;;;;4985053;28;20031;-77
2021/09/03 05:01:25;;;;;;;20.08;9.25;;;13.30;99.90;;;;;;4987224;28;20426;-76
2021/09/03 05:03:50;;;;;;;17.92;8.55;;;13.40;99.90;;;;;;4986780;28;20027;-76
2021/09/03 05:06:16;;;;;;;15.38;9.18;;;13.40;99.90;;;;;;4980576;28;20076;-77
2021/09/03 05:08:42;;;;;;;16.30;9.23;;;13.40;99.90;;;;;;4991078;28;20030;-78
2021/09/03 05:11:07;;;;;;;17.15;9.13;;;13.40;99.90;;;;;;4978513;28;20540;-78
2021/09/03 05:13:33;;;;;;;14.88;8.32;;;13.40;99.90;;;;;;4985512;28;20555;-78
2021/09/03 05:15:59;;;;;;;17.27;8.75;;;13.50;99.90;;;;;;4987869;28;21604;-78
2021/09/03 05:18:24;;;;;;;20.35;8.98;;;13.50;99.90;;;;;;4985096;28;20058;-79
2021/09/03 05:20:50;;;;;;;18.35;9.40;;;13.50;99.90;;;;;;4992192;28;20109;-78
2021/09/03 05:23:15;;;;;;;15.80;8.88;;;13.50;99.90;;;;;;4992251;28;20062;-77
2021/09/03 05:25:41;;;;;;;27.08;9.15;;;13.60;99.90;;;;;;4987633;28;20041;-77
2021/09/03 05:28:06;;;;;;;19.20;8.93;;;13.60;99.90;;;;;;4990910;28;20495;-79
2021/09/03 05:30:32;;;;;;;19.25;8.80;;;13.60;99.90;;;;;;4984843;28;20035;-79
2021/09/03 05:32:57;;;;;;;16.13;8.65;;;13.60;99.90;;;;;;4984808;28;20035;-80
2021/09/03 05:35:27;;;;;;;16.73;8.30;;;13.60;99.90;;;;;;4980738;28;20027;-80
2021/09/03 05:37:53;;;;;;;22.17;9.60;;;13.70;99.90;;;;;;4981419;28;20030;-80
2021/09/03 05:40:19;;;;;;;16.20;8.57;;;13.70;99.90;;;;;;4989838;28;20105;-78
2021/09/03 05:42:44;;;;;;;20.65;8.93;;;13.70;99.90;;;;;;4988299;28;20138;-78
2021/09/03 05:45:10;;;;;;;20.35;10.00;;;13.70;99.90;;;;;;4985784;28;20061;-77
2021/09/03 05:47:44;;;;;;;17.88;8.93;;;13.80;99.90;;;;;;4981118;28;20034;-79
2021/09/03 05:50:42;;;;;;;21.30;9.85;;;13.80;99.90;;;;;;4989789;28;20034;-75
2021/09/03 05:53:08;;;;;;;17.48;9.10;;;13.80;99.90;;;;;;4991964;28;20500;-75
2021/09/03 05:55:33;;;;;;;17.48;7.78;;;13.80;99.90;;;;;;4991286;28;20054;-75
2021/09/03 05:57:59;;;;;;;18.02;9.10;;;13.90;99.90;;;;;;4987006;28;20030;-75
2021/09/03 06:00:25;;;;;;;18.70;8.52;;;13.90;99.90;;;;;;4991258;28;20050;-75
2021/09/03 06:02:50;;;;;;;16.48;8.35;;;13.90;99.90;;;;;;4992107;28;20189;-75
2021/09/03 06:05:17;;;;;;;15.60;9.05;;;13.90;99.90;;;;;;4985240;28;20038;-75
2021/09/03 06:07:43;;;;;;;18.27;8.00;;;13.90;99.90;;;;;;4991491;28;20034;-75
2021/09/03 06:10:09;;;;;;;19.17;9.23;;;14.00;99.90;;;;;;4992194;28;20096;-75
2021/09/03 06:12:36;;;;;;;21.77;8.77;;;14.00;99.90;;;;;;4978267;28;20034;-75
2021/09/03 06:15:02;;;;;;;16.23;8.93;;;14.00;99.90;;;;;;4991718;28;20034;-75
2021/09/03 06:17:28;;;;;;;14.98;8.40;;;14.00;99.90;;;;;;4990256;28;20069;-75
2021/09/03 06:19:53;;;;;;;15.90;9.02;;;14.10;99.90;;;;;;4990033;28;20050;-75
2021/09/03 06:22:21;;;;;;;19.38;9.80;;;14.10;99.90;;;;;;4991694;28;20029;-75
2021/09/03 06:24:47;;;;;;;20.45;10.30;;;14.10;99.90;;;;;;4988822;28;20114;-75
2021/09/03 06:27:12;;;;;;;19.13;10.18;;;14.20;99.90;;;;;;4991920;28;20492;-75
2021/09/03 06:32:09;;;;;;;20.00;9.95;;;14.20;99.90;;;;;;4991009;28;20228;-75
2021/09/03 06:34:36;;;;;;;20.17;10.38;;;14.30;99.90;;;;;;4991563;28;20022;-75
2021/09/03 06:37:01;;;;;;;21.70;10.45;;;14.30;99.90;;;;;;4991926;28;20034;-75
2021/09/03 06:39:27;;;;;;;19.48;10.30;;;14.40;99.90;;;;;;4990434;28;20508;-75
2021/09/03 06:41:52;;;;;;;20.23;10.50;;;14.40;99.90;;;;;;4979162;28;20034;-75
2021/09/03 06:44:18;;;;;;;27.70;11.80;;;14.50;99.90;;;;;;4990100;28;20661;-75
2021/09/03 06:46:43;;;;;;;20.55;11.30;;;14.50;99.90;;;;;;4991236;28;20108;-75
2021/09/03 06:49:09;;;;;;;24.20;10.90;;;14.60;99.90;;;;;;4989949;28;20050;-75
2021/09/03 06:51:34;;;;;;;25.80;11.00;;;14.60;99.90;;;;;;4991709;28;20027;-75
2021/09/03 06:54:00;;;;;;;20.52;10.55;;;14.70;99.90;;;;;;4989770;28;20034;-75
2021/09/03 06:56:25;;;;;;;24.20;11.40;;;14.70;99.90;;;;;;4991182;28;20449;-75
2021/09/03 06:58:50;;;;;;;24.85;11.85;;;14.80;99.90;;;;;;4990659;28;20122;-75
2021/09/03 07:01:16;;;;;;;27.77;12.77;;;14.80;99.90;;;;;;4990724;28;20291;-75
2021/09/03 07:03:43;;;;;;;22.48;11.32;;;14.80;99.90;;;;;;4985265;28;20065;-75
2021/09/03 07:06:12;;;;;;;25.98;13.27;;;14.90;99.90;;;;;;4978651;28;20113;-75
2021/09/03 07:08:37;;;;;;;23.05;10.90;;;15.00;99.90;;;;;;4978336;28;20067;-76
2021/09/03 07:11:02;;;;;;;21.80;10.50;;;15.00;99.90;;;;;;4990803;28;20026;-75
2021/09/03 07:13:28;;;;;;;17.33;9.65;;;15.00;99.90;;;;;;4990279;28;20085;-75
2021/09/03 07:15:53;;;;;;;26.70;11.05;;;15.10;99.90;;;;;;4990288;28;20371;-76
2021/09/03 07:18:19;;;;;;;21.20;10.57;;;15.10;99.90;;;;;;4988942;28;20030;-75
2021/09/03 07:20:44;;;;;;;19.52;10.68;;;15.20;99.90;;;;;;4980014;28;20058;-76
2021/09/03 07:23:10;;;;;;;25.33;9.27;;;15.20;99.90;;;;;;4982833;28;20039;-76
2021/09/03 07:25:38;;;;;;;23.95;10.15;;;15.30;99.90;;;;;;4971246;28;20034;-75
2021/09/03 07:28:06;;;;;;;25.38;10.60;;;15.30;99.90;;;;;;4970776;28;20027;-75
2021/09/03 07:30:31;;;;;;;21.70;9.23;;;15.40;99.90;;;;;;4970247;28;20015;-75
2021/09/03 07:32:59;;;;;;;14.50;8.38;;;15.40;99.90;;;;;;4979860;28;20445;-75
2021/09/03 07:35:25;;;;;;;14.15;8.32;;;15.40;99.90;;;;;;4990470;28;20023;-75
2021/09/03 07:37:51;;;;;;;19.10;8.30;;;15.50;99.90;;;;;;4989553;28;20022;-75
2021/09/03 07:40:17;;;;;;;16.95;8.30;;;15.50;99.90;;;;;;4988626;28;20370;-75
2021/09/03 07:42:43;;;;;;;15.43;7.93;;;15.60;99.90;;;;;;4985252;28;20022;-75
2021/09/03 07:45:09;;;;;;;21.02;8.88;;;15.60;99.90;;;;;;4977139;28;20031;-75
2021/09/03 07:47:35;;;;;;;16.52;8.30;;;15.70;99.90;;;;;;4980948;28;20114;-75
2021/09/03 07:50:00;;;;;;;18.55;7.97;;;15.70;99.90;;;;;;4983799;28;20149;-75
2021/09/03 07:52:26;;;;;;;20.08;7.97;;;15.70;99.90;;;;;;4986540;28;20037;-75
2021/09/03 07:54:51;;;;;;;21.15;8.95;;;15.80;99.90;;;;;;4989228;28;20296;-76
2021/09/03 07:57:17;;;;;;;15.15;8.32;;;15.80;99.90;;;;;;4989809;28;20030;-75
2021/09/03 07:59:42;;;;;;;22.35;9.32;;;15.90;99.90;;;;;;4988675;28;20050;-75
2021/09/03 08:02:07;;;;;;;14.95;8.10;;;15.90;99.90;;;;;;4989549;28;20129;-75
2021/09/03 08:04:33;;;;;;;15.95;8.63;;;15.90;99.90;;;;;;4987597;28;20065;-75
2021/09/03 08:06:59;;;;;;;13.68;7.88;;;16.00;99.90;;;;;;4988577;28;20106;-75
2021/09/03 08:09:25;;;;;;;20.75;8.15;;;16.00;99.90;;;;;;4988987;28;20034;-75
2021/09/03 08:11:50;;;;;;;16.85;8.38;;;16.10;99.90;;;;;;4989228;28;20133;-76
2021/09/03 08:14:16;;;;;;;18.90;7.90;;;16.20;99.90;;;;;;4989461;28;20030;-76
2021/09/03 08:16:42;;;;;;;18.45;9.60;;;16.20;99.90;;;;;;4988727;28;20039;-75
2021/09/03 08:19:08;;;;;;;16.45;8.57;;;16.30;99.90;;;;;;4986805;28;20030;-74
2021/09/03 08:21:34;;;;;;;17.40;8.82;;;16.40;99.90;;;;;;4985047;28;20465;-73
2021/09/03 08:24:00;;;;;;;15.13;8.25;;;16.50;99.90;;;;;;4986095;28;20031;-74
2021/09/03 08:26:25;;;;;;;18.77;8.77;;;16.60;99.90;;;;;;4988951;28;20488;-74
2021/09/03 08:28:51;;;;;;;14.55;8.40;;;16.80;99.90;;;;;;4978013;28;20035;-75
2021/09/03 08:31:17;;;;;;;13.32;8.68;;;16.80;99.90;;;;;;4986029;28;20030;-80
2021/09/03 08:33:42;;;;;;;16.75;8.73;;;16.90;99.90;;;;;;4977239;28;20038;-83
2021/09/03 08:36:08;;;;;;;22.75;8.65;;;17.00;99.90;;;;;;4970053;28;20035;-81
2021/09/03 08:38:34;;;;;;;19.92;9.15;;;17.00;99.90;;;;;;4989312;28;20034;-81
2021/09/03 08:41:03;;;;;;;17.73;8.70;;;17.10;99.90;;;;;;4987678;28;20041;-76
2021/09/03 08:43:29;;;;;;;18.55;8.82;;;17.10;99.90;;;;;;4987762;28;20037;-77
2021/09/03 08:45:55;;;;;;;15.02;8.18;;;17.20;99.90;;;;;;4974207;28;20023;-76
2021/09/03 08:48:21;;;;;;;17.85;9.25;;;17.20;99.90;;;;;;4988613;28;20019;-76
2021/09/03 08:50:52;;;;;;;16.95;8.85;;;17.20;99.90;;;;;;4984069;28;20102;-83
2021/09/03 08:53:20;;;;;;;27.83;8.15;;;17.20;99.90;;;;;;4989200;28;20055;-75
2021/09/03 08:55:47;;;;;;;15.93;8.48;;;17.30;99.90;;;;;;4981813;28;20646;-80
2021/09/03 08:58:13;;;;;;;17.35;8.88;;;17.30;99.90;;;;;;4983146;28;20030;-74
2021/09/03 09:00:41;;;;;;;15.60;8.00;;;17.30;99.90;;;;;;4983897;28;20520;-74
2021/09/03 09:03:15;;;;;;;17.42;7.90;;;17.40;99.90;;;;;;4976908;28;20533;-75
2021/09/03 09:05:57;;;;;;;18.48;8.05;;;17.40;99.90;;;;;;4978337;28;20030;-75
2021/09/03 09:08:27;;;;;;;17.88;9.05;;;17.50;99.90;;;;;;4986068;28;20039;-75
2021/09/03 09:11:10;;;;;;;19.45;8.88;;;17.50;99.90;;;;;;4979581;28;20038;-77
2021/09/03 09:13:41;;;;;;;13.00;7.60;;;17.60;99.90;;;;;;4981151;28;20077;-75
2021/09/03 09:16:11;;;;;;;14.13;7.20;;;17.60;99.90;;;;;;4982148;28;20049;-75
2021/09/03 09:18:46;;;;;;;19.95;8.52;;;17.70;99.90;;;;;;4978889;28;20066;-74
2021/09/03 09:21:28;;;;;;;15.02;7.38;;;17.70;99.90;;;;;;4986210;28;20034;-74
2021/09/03 09:24:02;;;;;;;14.65;7.70;;;17.80;99.90;;;;;;4987221;28;20045;-75
2021/09/03 09:26:56;;;;;;;14.75;7.30;;;17.90;99.90;;;;;;4980198;28;20038;-75
2021/09/03 09:29:45;;;;;;;15.48;7.25;;;18.00;99.90;;;;;;4989313;28;20057;-74
2021/09/03 09:32:12;;;;;;;15.57;8.88;;;18.00;99.90;;;;;;4990412;28;20031;-75
2021/09/03 09:34:44;;;;;;;16.85;7.45;;;18.10;99.90;;;;;;4988571;28;20034;-75
2021/09/03 09:37:13;;;;;;;17.05;7.88;;;18.10;99.90;;;;;;4984381;28;20889;-75
2021/09/03 09:39:56;;;;;;;17.55;7.78;;;18.30;99.90;;;;;;4988104;28;20038;-75
2021/09/03 09:42:22;;;;;;;17.73;7.15;;;18.30;99.90;;;;;;4988020;28;20058;-75
2021/09/03 09:45:05;;;;;;;14.80;7.07;;;18.40;99.90;;;;;;4988813;28;20082;-76
2021/09/03 09:47:30;;;;;;;14.25;7.30;;;18.40;99.90;;;;;;4988084;28;20084;-75
2021/09/03 09:49:56;;;;;;;12.23;6.70;;;18.50;99.90;;;;;;4979212;28;20486;-74
2021/09/03 09:52:37;;;;;;;13.35;7.45;;;18.60;99.90;;;;;;4982909;28;20267;-75
2021/09/03 09:55:04;;;;;;;16.88;6.88;;;18.60;99.90;;;;;;4991908;28;20489;-74
2021/09/03 09:57:33;;;;;;;13.48;6.78;;;18.70;99.90;;;;;;4990743;28;20034;-75
2021/09/03 10:00:03;;;;;;;15.57;6.63;;;18.80;99.90;;;;;;4981674;28;20125;-75
2021/09/03 10:02:29;;;;;;;16.95;6.78;;;18.80;99.90;;;;;;4991227;28;20125;-74
2021/09/03 10:04:57;;;;;;;16.52;7.13;;;18.90;99.90;;;;;;4984846;28;20027;-75
2021/09/03 10:07:24;;;;;;;35.35;7.20;;;19.00;99.90;;;;;;4990847;28;20472;-75
2021/09/03 10:09:49;;;;;;;12.80;6.28;;;19.10;99.90;;;;;;4988901;28;20564;-75
2021/09/03 10:12:15;;;;;;;12.70;6.45;;;19.20;99.90;;;;;;4983719;28;20046;-76
2021/09/03 10:14:41;;;;;;;13.32;6.18;;;19.40;99.90;;;;;;4977991;28;20030;-75
2021/09/03 10:17:10;;;;;;;14.63;7.03;;;19.50;99.90;;;;;;4986454;28;20038;-75
2021/09/03 10:19:36;;;;;;;13.30;6.18;;;19.60;99.90;;;;;;4988957;28;20027;-75
2021/09/03 10:22:09;;;;;;;15.02;6.20;;;19.60;99.30;;;;;;4990249;28;20148;-75
2021/09/03 10:24:36;;;;;;;13.40;6.72;;;19.70;97.80;;;;;;4990840;28;20507;-75
2021/09/03 10:27:03;;;;;;;10.40;5.68;;;19.90;97.80;;;;;;4990450;28;20105;-74
2021/09/03 10:29:36;;;;;;;20.50;6.53;;;20.00;97.50;;;;;;4989224;28;20053;-75
2021/09/03 10:32:05;;;;;;;10.00;5.45;;;20.00;96.50;;;;;;4988679;28;20030;-74
2021/09/03 10:34:45;;;;;;;11.68;5.38;;;20.20;96.30;;;;;;4983668;28;20030;-74
2021/09/03 10:37:16;;;;;;;11.55;5.55;;;20.30;95.90;;;;;;4991020;28;20037;-75
2021/09/03 10:40:03;;;;;;;;;;;20.40;94.60;;;;;;4983564;28;20312;-75
2021/09/03 10:42:35;;;;;;;12.40;6.50;;;20.60;93.50;;;;;;4977884;28;19921;-74
2021/09/03 10:45:08;;;;;;;12.20;6.10;;;20.70;94.00;;;;;;4980058;28;20027;-75
2021/09/03 10:47:49;;;;;;;9.02;5.43;;;20.80;93.70;;;;;;4991351;28;20053;-75
2021/09/03 10:50:21;;;;;;;13.63;5.32;;;21.00;92.90;;;;;;4985139;28;20431;-75
2021/09/03 10:53:07;;;;;;;16.35;6.40;;;21.10;91.80;;;;;;4986624;28;20026;-75
2021/09/03 10:56:06;;;;;;;9.98;5.78;;;21.20;91.50;;;;;;4988228;28;20042;-74
2021/09/03 10:58:51;;;;;;;8.80;5.97;;;21.40;90.40;;;;;;4989304;28;20117;-73
2021/09/03 11:01:26;;;;;;;10.57;6.20;;;21.50;90.60;;;;;;4983236;28;20592;-75
2021/09/03 11:04:02;;;;;;;8.73;5.32;;;21.60;90.10;;;;;;4981579;28;20106;-83
2021/09/03 11:06:56;;;;;;;9.50;5.57;;;21.80;89.00;;;;;;4986706;28;20185;-83
2021/09/03 11:09:24;;;;;;;10.68;4.80;;;21.90;88.10;;;;;;4986777;28;20086;-83
2021/09/03 11:12:22;;;;;;;9.05;5.32;;;22.10;86.90;;;;;;4979369;28;20031;-81
2021/09/03 11:14:54;;;;;;;14.20;5.07;;;22.20;83.80;;;;;;4982658;28;20066;-81
2021/09/03 11:17:19;;;;;;;10.02;4.93;;;22.40;82.10;;;;;;4980140;28;20053;-82
2021/09/03 11:19:47;;;;;;;13.25;5.13;;;22.60;81.60;;;;;;4987377;28;20054;-82
2021/09/03 11:22:16;;;;;;;9.50;5.15;;;22.80;81.40;;;;;;4993027;28;20066;-83
2021/09/03 11:24:47;;;;;;;8.23;5.22;;;23.10;79.60;;;;;;4986373;28;20026;-81
2021/09/03 11:27:22;;;;;;;11.68;4.88;;;23.20;79.40;;;;;;4985902;28;20097;-81
2021/09/03 11:29:50;;;;;;;8.23;4.15;;;23.60;80.80;;;;;;4984625;28;20056;-83
2021/09/03 11:32:24;;;;;;;7.18;4.80;;;23.90;74.80;;;;;;4986772;28;20036;-82
2021/09/03 11:34:53;;;;;;;7.35;4.22;;;24.30;71.70;;;;;;4979882;28;20027;-83
2021/09/03 11:37:20;;;;;;;6.60;4.53;;;24.70;70.20;;;;;;4988758;28;20034;-83
2021/09/03 11:39:46;;;;;;;6.90;4.32;;;25.00;67.60;;;;;;4989280;28;20030;-82
2021/09/03 11:42:18;;;;;;;10.73;4.85;;;25.30;67.90;;;;;;4988737;28;20061;-83
2021/09/03 11:44:52;;;;;;;10.52;4.60;;;25.60;64.00;;;;;;4989743;28;20101;-85
2021/09/03 11:47:45;;;;;;;6.90;4.43;;;26.00;67.20;;;;;;4984225;28;20436;-84
2021/09/03 11:50:16;;;;;;;7.38;4.07;;;26.40;62.50;;;;;;4987228;28;20030;-84
2021/09/03 11:52:43;;;;;;;6.18;4.10;;;26.70;61.20;;;;;;4990568;28;20095;-84
2021/09/03 11:55:15;;;;;;;8.27;4.95;;;27.00;63.00;;;;;;4988029;28;20027;-82
2021/09/03 11:57:58;;;;;;;8.25;4.80;;;27.50;59.60;;;;;;4985529;28;20049;-83
2021/09/03 12:00:39;;;;;;;10.15;4.10;;;27.90;58.00;;;;;;4987671;28;20124;-83
2021/09/03 12:03:09;;;;;;;8.50;5.18;;;28.30;57.90;;;;;;4989949;28;20030;-81
2021/09/03 12:05:40;;;;;;;20.02;4.97;;;28.70;56.40;;;;;;4982788;28;20041;-80
2021/09/03 12:08:08;;;;;;;;;;;28.90;55.50;;;;;;4980969;28;20481;-84
2021/09/03 12:10:50;;;;;;;8.57;4.38;;;29.10;56.60;;;;;;4988431;28;19909;-84
2021/09/03 12:13:18;;;;;;;9.68;4.35;;;29.50;53.70;;;;;;4983405;28;20069;-84
2021/09/03 12:16:03;;;;;;;11.73;4.90;;;29.80;53.20;;;;;;4985398;28;20034;-83
2021/09/03 12:18:32;;;;;;;6.25;3.75;;;30.20;53.10;;;;;;4988459;28;20501;-83
2021/09/03 12:21:11;;;;;;;9.65;3.65;;;30.70;52.00;;;;;;4988003;28;20056;-83
2021/09/03 12:23:42;;;;;;;5.28;3.80;;;30.80;49.10;;;;;;4994984;28;20489;-83
2021/09/03 12:26:16;;;;;;;7.03;3.75;;;30.80;49.30;;;;;;4986212;28;20050;-82
2021/09/03 12:28:43;;;;;;;8.73;4.30;;;30.90;49.30;;;;;;4986252;28;20436;-84
2021/09/03 12:31:13;;;;;;;5.93;3.47;;;31.10;48.80;;;;;;4980351;28;20076;-83
2021/09/03 12:34:12;;;;;;;6.73;3.93;;;31.30;49.80;;;;;;4988387;28;20030;-81
2021/09/03 12:36:40;;;;;;;6.43;3.92;;;31.50;46.10;;;;;;4973837;28;20046;-83
2021/09/03 12:39:18;;;;;;;4.72;3.53;;;31.70;46.80;;;;;;4985716;28;20042;-84
2021/09/03 12:41:44;;;;;;;8.63;3.53;;;32.20;46.50;;;;;;4989579;28;20033;-84
2021/09/03 12:44:21;;;;;;;5.28;3.75;;;32.50;43.80;;;;;;4989849;28;20030;-86
2021/09/03 12:46:49;;;;;;;7.90;3.90;;;32.60;44.20;;;;;;4989320;28;20533;-85